sensor_id;sensor_type;location;lat;lon;timestamp;temperature;humidity
64833;HTU21D;51290;45.060;38.948;2022-12-13T00:01:40;8.51;76.95
64833;HTU21D;51290;45.060;38.948;2022-12-13T00:04:06;8.51;77.00
64833;HTU21D;51290;45.060;38.948;2022-12-13T00:06:33;8.53;77.05
64833;HTU21D;51290;45.060;38.948;2022-12-13T00:08:59;8.55;77.05
64833;HTU21D;51290;45.060;38.948;2022-12-13T00:11:26;8.53;77.11
64833;HTU21D;51290;45.060;38.948;2022-12-13T00:13:53;8.53;77.14
64833;HTU21D;51290;45.060;38.948;2022-12-13T00:16:20;8.52;77.17
64833;HTU21D;51290;45.060;38.948;2022-12-13T00:18:52;8.52;77.18
64833;HTU21D;51290;45.060;38.948;2022-12-13T00:21:22;8.53;77.19
64833;HTU21D;51290;45.060;38.948;2022-12-13T00:23:48;8.53;77.20
64833;HTU21D;51290;45.060;38.948;2022-12-13T00:26:18;8.53;77.21
64833;HTU21D;51290;45.060;38.948;2022-12-13T00:28:45;8.53;77.25
64833;HTU21D;51290;45.060;38.948;2022-12-13T00:31:14;8.53;77.26
64833;HTU21D;51290;45.060;38.948;2022-12-13T00:33:40;8.55;77.22
64833;HTU21D;51290;45.060;38.948;2022-12-13T00:36:07;8.55;77.24
64833;HTU21D;51290;45.060;38.948;2022-12-13T00:38:34;8.53;77.25
64833;HTU21D;51290;45.060;38.948;2022-12-13T00:41:09;8.53;77.31
64833;HTU21D;51290;45.060;38.948;2022-12-13T00:43:36;8.53;77.29
64833;HTU21D;51290;45.060;38.948;2022-12-13T00:46:02;8.53;77.28
64833;HTU21D;51290;45.060;38.948;2022-12-13T00:48:28;8.53;77.31
64833;HTU21D;51290;45.060;38.948;2022-12-13T00:50:53;8.51;77.40
64833;HTU21D;51290;45.060;38.948;2022-12-13T00:53:19;8.51;77.44
64833;HTU21D;51290;45.060;38.948;2022-12-13T00:55:45;8.51;77.50
64833;HTU21D;51290;45.060;38.948;2022-12-13T00:58:11;8.51;77.50
64833;HTU21D;51290;45.060;38.948;2022-12-13T01:00:37;8.51;77.51
64833;HTU21D;51290;45.060;38.948;2022-12-13T01:03:03;8.51;77.49
64833;HTU21D;51290;45.060;38.948;2022-12-13T01:05:47;8.52;77.54
64833;HTU21D;51290;45.060;38.948;2022-12-13T01:08:14;8.51;77.55
64833;HTU21D;51290;45.060;38.948;2022-12-13T01:10:44;8.52;77.61
64833;HTU21D;51290;45.060;38.948;2022-12-13T01:13:11;8.55;77.61
64833;HTU21D;51290;45.060;38.948;2022-12-13T01:15:44;8.56;77.61
64833;HTU21D;51290;45.060;38.948;2022-12-13T01:18:11;8.55;77.54
64833;HTU21D;51290;45.060;38.948;2022-12-13T01:20:39;8.52;77.50
64833;HTU21D;51290;45.060;38.948;2022-12-13T01:23:05;8.49;77.62
64833;HTU21D;51290;45.060;38.948;2022-12-13T01:25:32;8.45;77.65
64833;HTU21D;51290;45.060;38.948;2022-12-13T01:28:00;8.41;77.66
64833;HTU21D;51290;45.060;38.948;2022-12-13T01:30:26;8.36;77.73
64833;HTU21D;51290;45.060;38.948;2022-12-13T01:32:52;8.33;77.79
64833;HTU21D;51290;45.060;38.948;2022-12-13T01:35:18;8.30;77.81
64833;HTU21D;51290;45.060;38.948;2022-12-13T01:37:44;8.28;77.84
64833;HTU21D;51290;45.060;38.948;2022-12-13T01:40:11;8.26;77.83
64833;HTU21D;51290;45.060;38.948;2022-12-13T01:42:40;8.22;77.83
64833;HTU21D;51290;45.060;38.948;2022-12-13T01:45:22;8.17;77.85
64833;HTU21D;51290;45.060;38.948;2022-12-13T01:47:54;8.12;77.85
64833;HTU21D;51290;45.060;38.948;2022-12-13T01:50:25;8.07;77.93
64833;HTU21D;51290;45.060;38.948;2022-12-13T01:52:53;8.03;78.08
64833;HTU21D;51290;45.060;38.948;2022-12-13T01:55:21;8.00;78.14
64833;HTU21D;51290;45.060;38.948;2022-12-13T01:57:50;7.97;78.18
64833;HTU21D;51290;45.060;38.948;2022-12-13T02:00:17;7.96;78.18
64833;HTU21D;51290;45.060;38.948;2022-12-13T02:02:44;7.94;78.20
64833;HTU21D;51290;45.060;38.948;2022-12-13T02:05:36;7.93;78.23
64833;HTU21D;51290;45.060;38.948;2022-12-13T02:08:04;7.93;78.23
64833;HTU21D;51290;45.060;38.948;2022-12-13T02:10:32;7.92;78.23
64833;HTU21D;51290;45.060;38.948;2022-12-13T02:12:58;7.92;78.22
64833;HTU21D;51290;45.060;38.948;2022-12-13T02:15:30;7.91;78.29
64833;HTU21D;51290;45.060;38.948;2022-12-13T02:18:25;7.90;78.30
64833;HTU21D;51290;45.060;38.948;2022-12-13T02:26:57;7.87;78.31
64833;HTU21D;51290;45.060;38.948;2022-12-13T02:29:48;7.84;78.41
64833;HTU21D;51290;45.060;38.948;2022-12-13T02:35:01;7.86;78.56
64833;HTU21D;51290;45.060;38.948;2022-12-13T02:38:48;7.87;78.61
64833;HTU21D;51290;45.060;38.948;2022-12-13T02:46:19;7.90;78.59
64833;HTU21D;51290;45.060;38.948;2022-12-13T02:48:48;7.91;78.68
64833;HTU21D;51290;45.060;38.948;2022-12-13T02:51:16;7.93;78.75
64833;HTU21D;51290;45.060;38.948;2022-12-13T02:53:44;7.93;78.81
64833;HTU21D;51290;45.060;38.948;2022-12-13T02:56:11;7.94;78.83
64833;HTU21D;51290;45.060;38.948;2022-12-13T02:58:44;7.97;78.93
64833;HTU21D;51290;45.060;38.948;2022-12-13T03:04:34;7.98;78.98
64833;HTU21D;51290;45.060;38.948;2022-12-13T03:07:28;8.00;78.98
64833;HTU21D;51290;45.060;38.948;2022-12-13T03:10:06;7.99;79.04
64833;HTU21D;51290;45.060;38.948;2022-12-13T03:13:01;7.98;79.07
64833;HTU21D;51290;45.060;38.948;2022-12-13T03:15:57;7.97;79.08
64833;HTU21D;51290;45.060;38.948;2022-12-13T03:18:28;7.98;79.10
64833;HTU21D;51290;45.060;38.948;2022-12-13T03:21:01;7.98;79.18
64833;HTU21D;51290;45.060;38.948;2022-12-13T03:23:28;7.99;79.24
64833;HTU21D;51290;45.060;38.948;2022-12-13T03:26:02;7.98;79.24
64833;HTU21D;51290;45.060;38.948;2022-12-13T03:28:29;7.99;79.22
64833;HTU21D;51290;45.060;38.948;2022-12-13T03:30:55;7.99;79.21
64833;HTU21D;51290;45.060;38.948;2022-12-13T03:33:21;8.00;79.21
64833;HTU21D;51290;45.060;38.948;2022-12-13T03:35:47;8.01;79.19
64833;HTU21D;51290;45.060;38.948;2022-12-13T03:38:15;8.01;79.20
64833;HTU21D;51290;45.060;38.948;2022-12-13T03:40:41;8.03;79.22
64833;HTU21D;51290;45.060;38.948;2022-12-13T03:43:07;8.03;79.20
64833;HTU21D;51290;45.060;38.948;2022-12-13T03:45:33;8.06;79.27
64833;HTU21D;51290;45.060;38.948;2022-12-13T03:47:59;8.07;79.30
64833;HTU21D;51290;45.060;38.948;2022-12-13T03:50:25;8.09;79.27
64833;HTU21D;51290;45.060;38.948;2022-12-13T03:52:58;8.09;79.25
64833;HTU21D;51290;45.060;38.948;2022-12-13T03:55:25;8.12;79.24
64833;HTU21D;51290;45.060;38.948;2022-12-13T03:57:50;8.14;79.26
64833;HTU21D;51290;45.060;38.948;2022-12-13T04:00:16;8.15;79.24
64833;HTU21D;51290;45.060;38.948;2022-12-13T04:02:42;8.18;79.21
64833;HTU21D;51290;45.060;38.948;2022-12-13T04:05:08;8.19;79.20
64833;HTU21D;51290;45.060;38.948;2022-12-13T04:07:34;8.22;79.16
64833;HTU21D;51290;45.060;38.948;2022-12-13T04:10:01;8.24;79.13
64833;HTU21D;51290;45.060;38.948;2022-12-13T04:12:27;8.28;79.12
64833;HTU21D;51290;45.060;38.948;2022-12-13T04:15:11;8.30;79.14
64833;HTU21D;51290;45.060;38.948;2022-12-13T04:17:37;8.31;79.08
64833;HTU21D;51290;45.060;38.948;2022-12-13T04:20:03;8.32;79.07
64833;HTU21D;51290;45.060;38.948;2022-12-13T04:22:29;8.33;79.02
64833;HTU21D;51290;45.060;38.948;2022-12-13T04:24:55;8.33;79.01
64833;HTU21D;51290;45.060;38.948;2022-12-13T04:27:21;8.35;79.05
64833;HTU21D;51290;45.060;38.948;2022-12-13T04:29:47;8.36;79.06
64833;HTU21D;51290;45.060;38.948;2022-12-13T04:32:13;8.35;79.11
64833;HTU21D;51290;45.060;38.948;2022-12-13T04:34:39;8.35;79.10
64833;HTU21D;51290;45.060;38.948;2022-12-13T04:37:05;8.35;79.08
64833;HTU21D;51290;45.060;38.948;2022-12-13T04:39:31;8.35;79.10
64833;HTU21D;51290;45.060;38.948;2022-12-13T04:41:57;8.36;79.12
64833;HTU21D;51290;45.060;38.948;2022-12-13T04:44:23;8.36;79.17
64833;HTU21D;51290;45.060;38.948;2022-12-13T04:46:49;8.35;79.17
64833;HTU21D;51290;45.060;38.948;2022-12-13T04:49:15;8.36;79.21
64833;HTU21D;51290;45.060;38.948;2022-12-13T04:51:41;8.36;79.29
64833;HTU21D;51290;45.060;38.948;2022-12-13T04:54:07;8.35;79.32
64833;HTU21D;51290;45.060;38.948;2022-12-13T04:56:33;8.36;79.33
64833;HTU21D;51290;45.060;38.948;2022-12-13T04:58:59;8.34;79.40
64833;HTU21D;51290;45.060;38.948;2022-12-13T05:01:25;8.33;79.43
64833;HTU21D;51290;45.060;38.948;2022-12-13T05:03:51;8.31;79.46
64833;HTU21D;51290;45.060;38.948;2022-12-13T05:06:17;8.31;79.48
64833;HTU21D;51290;45.060;38.948;2022-12-13T05:08:43;8.29;79.48
64833;HTU21D;51290;45.060;38.948;2022-12-13T05:11:10;8.29;79.52
64833;HTU21D;51290;45.060;38.948;2022-12-13T05:13:36;8.29;79.55
64833;HTU21D;51290;45.060;38.948;2022-12-13T05:16:05;8.30;79.62
64833;HTU21D;51290;45.060;38.948;2022-12-13T05:18:31;8.31;79.64
64833;HTU21D;51290;45.060;38.948;2022-12-13T05:21:07;8.32;79.69
64833;HTU21D;51290;45.060;38.948;2022-12-13T05:23:33;8.35;79.69
64833;HTU21D;51290;45.060;38.948;2022-12-13T05:25:59;8.35;79.73
64833;HTU21D;51290;45.060;38.948;2022-12-13T05:28:26;8.37;79.73
64833;HTU21D;51290;45.060;38.948;2022-12-13T05:30:57;8.39;79.69
64833;HTU21D;51290;45.060;38.948;2022-12-13T05:33:25;8.42;79.68
64833;HTU21D;51290;45.060;38.948;2022-12-13T05:35:51;8.48;79.65
64833;HTU21D;51290;45.060;38.948;2022-12-13T05:38:17;8.52;79.62
64833;HTU21D;51290;45.060;38.948;2022-12-13T05:40:43;8.58;79.57
64833;HTU21D;51290;45.060;38.948;2022-12-13T05:43:10;8.65;79.51
64833;HTU21D;51290;45.060;38.948;2022-12-13T05:45:36;8.70;79.43
64833;HTU21D;51290;45.060;38.948;2022-12-13T05:48:02;8.76;79.37
64833;HTU21D;51290;45.060;38.948;2022-12-13T05:50:28;8.81;79.32
64833;HTU21D;51290;45.060;38.948;2022-12-13T05:52:54;8.86;79.29
64833;HTU21D;51290;45.060;38.948;2022-12-13T05:55:20;8.93;79.25
64833;HTU21D;51290;45.060;38.948;2022-12-13T05:57:46;8.98;79.17
64833;HTU21D;51290;45.060;38.948;2022-12-13T06:00:13;9.05;79.14
64833;HTU21D;51290;45.060;38.948;2022-12-13T06:02:40;9.10;79.10
64833;HTU21D;51290;45.060;38.948;2022-12-13T06:05:07;9.16;79.06
64833;HTU21D;51290;45.060;38.948;2022-12-13T06:07:35;9.21;79.07
64833;HTU21D;51290;45.060;38.948;2022-12-13T06:10:02;9.25;79.01
64833;HTU21D;51290;45.060;38.948;2022-12-13T06:12:29;9.29;78.97
64833;HTU21D;51290;45.060;38.948;2022-12-13T06:14:54;9.32;78.91
64833;HTU21D;51290;45.060;38.948;2022-12-13T06:17:20;9.34;78.88
64833;HTU21D;51290;45.060;38.948;2022-12-13T06:19:50;9.36;78.89
64833;HTU21D;51290;45.060;38.948;2022-12-13T06:22:16;9.36;78.90
64833;HTU21D;51290;45.060;38.948;2022-12-13T06:24:43;9.37;78.91
64833;HTU21D;51290;45.060;38.948;2022-12-13T06:27:09;9.37;78.95
64833;HTU21D;51290;45.060;38.948;2022-12-13T06:29:35;9.38;78.98
64833;HTU21D;51290;45.060;38.948;2022-12-13T06:32:02;9.39;78.99
64833;HTU21D;51290;45.060;38.948;2022-12-13T06:34:31;9.40;78.98
64833;HTU21D;51290;45.060;38.948;2022-12-13T06:36:57;9.40;78.99
64833;HTU21D;51290;45.060;38.948;2022-12-13T06:39:23;9.44;79.04
64833;HTU21D;51290;45.060;38.948;2022-12-13T06:41:49;9.46;79.11
64833;HTU21D;51290;45.060;38.948;2022-12-13T06:44:15;9.50;79.12
64833;HTU21D;51290;45.060;38.948;2022-12-13T06:46:41;9.54;79.14
64833;HTU21D;51290;45.060;38.948;2022-12-13T06:49:07;9.57;79.14
64833;HTU21D;51290;45.060;38.948;2022-12-13T06:51:33;9.64;79.11
64833;HTU21D;51290;45.060;38.948;2022-12-13T06:54:00;9.68;79.07
64833;HTU21D;51290;45.060;38.948;2022-12-13T06:56:27;9.74;79.03
64833;HTU21D;51290;45.060;38.948;2022-12-13T06:58:53;9.78;78.99
64833;HTU21D;51290;45.060;38.948;2022-12-13T07:01:19;9.80;78.98
64833;HTU21D;51290;45.060;38.948;2022-12-13T07:03:45;9.85;78.97
64833;HTU21D;51290;45.060;38.948;2022-12-13T07:06:14;9.90;78.96
64833;HTU21D;51290;45.060;38.948;2022-12-13T07:08:42;9.93;78.89
64833;HTU21D;51290;45.060;38.948;2022-12-13T07:11:20;9.97;78.83
64833;HTU21D;51290;45.060;38.948;2022-12-13T07:13:46;10.01;78.82
64833;HTU21D;51290;45.060;38.948;2022-12-13T07:16:13;10.06;78.76
64833;HTU21D;51290;45.060;38.948;2022-12-13T07:18:39;10.13;78.72
64833;HTU21D;51290;45.060;38.948;2022-12-13T07:21:06;10.16;78.69
64833;HTU21D;51290;45.060;38.948;2022-12-13T07:23:37;10.23;78.67
64833;HTU21D;51290;45.060;38.948;2022-12-13T07:26:04;10.29;78.57
64833;HTU21D;51290;45.060;38.948;2022-12-13T07:28:35;10.33;78.50
64833;HTU21D;51290;45.060;38.948;2022-12-13T07:31:03;10.37;78.40
64833;HTU21D;51290;45.060;38.948;2022-12-13T07:33:29;10.40;78.33
64833;HTU21D;51290;45.060;38.948;2022-12-13T07:36:00;10.40;78.27
64833;HTU21D;51290;45.060;38.948;2022-12-13T07:38:26;10.42;78.24
64833;HTU21D;51290;45.060;38.948;2022-12-13T07:40:55;10.45;78.25
64833;HTU21D;51290;45.060;38.948;2022-12-13T07:43:21;10.49;78.18
64833;HTU21D;51290;45.060;38.948;2022-12-13T07:45:48;10.53;78.21
64833;HTU21D;51290;45.060;38.948;2022-12-13T07:48:14;10.56;78.18
64833;HTU21D;51290;45.060;38.948;2022-12-13T07:50:40;10.62;78.18
64833;HTU21D;51290;45.060;38.948;2022-12-13T07:53:07;10.66;78.11
64833;HTU21D;51290;45.060;38.948;2022-12-13T07:55:33;10.71;78.07
64833;HTU21D;51290;45.060;38.948;2022-12-13T07:58:04;10.74;77.95
64833;HTU21D;51290;45.060;38.948;2022-12-13T08:00:30;10.77;77.85
64833;HTU21D;51290;45.060;38.948;2022-12-13T08:02:56;10.75;77.80
64833;HTU21D;51290;45.060;38.948;2022-12-13T08:05:22;10.77;77.88
64833;HTU21D;51290;45.060;38.948;2022-12-13T08:07:48;10.83;77.92
64833;HTU21D;51290;45.060;38.948;2022-12-13T08:10:15;10.87;77.90
64833;HTU21D;51290;45.060;38.948;2022-12-13T08:12:41;10.96;77.93
64833;HTU21D;51290;45.060;38.948;2022-12-13T08:15:07;11.04;77.83
64833;HTU21D;51290;45.060;38.948;2022-12-13T08:17:33;11.12;77.72
64833;HTU21D;51290;45.060;38.948;2022-12-13T08:19:59;11.18;77.55
64833;HTU21D;51290;45.060;38.948;2022-12-13T08:22:25;11.22;77.44
64833;HTU21D;51290;45.060;38.948;2022-12-13T08:24:51;11.24;77.37
64833;HTU21D;51290;45.060;38.948;2022-12-13T08:27:17;11.24;77.37
64833;HTU21D;51290;45.060;38.948;2022-12-13T08:29:43;11.27;77.40
64833;HTU21D;51290;45.060;38.948;2022-12-13T08:32:11;11.28;77.40
64833;HTU21D;51290;45.060;38.948;2022-12-13T08:34:37;11.29;77.34
64833;HTU21D;51290;45.060;38.948;2022-12-13T08:37:04;11.28;77.27
64833;HTU21D;51290;45.060;38.948;2022-12-13T08:39:31;11.26;77.31
64833;HTU21D;51290;45.060;38.948;2022-12-13T08:41:59;11.24;77.30
64833;HTU21D;51290;45.060;38.948;2022-12-13T08:44:25;11.24;77.39
64833;HTU21D;51290;45.060;38.948;2022-12-13T08:46:51;11.25;77.42
64833;HTU21D;51290;45.060;38.948;2022-12-13T08:49:17;11.25;77.40
64833;HTU21D;51290;45.060;38.948;2022-12-13T08:51:43;11.23;77.39
64833;HTU21D;51290;45.060;38.948;2022-12-13T08:54:09;11.20;77.44
64833;HTU21D;51290;45.060;38.948;2022-12-13T08:56:35;11.22;77.50
64833;HTU21D;51290;45.060;38.948;2022-12-13T08:59:01;11.25;77.59
64833;HTU21D;51290;45.060;38.948;2022-12-13T09:01:27;11.30;77.65
64833;HTU21D;51290;45.060;38.948;2022-12-13T09:03:55;11.40;77.61
64833;HTU21D;51290;45.060;38.948;2022-12-13T09:06:23;11.45;77.44
64833;HTU21D;51290;45.060;38.948;2022-12-13T09:08:52;11.51;77.39
64833;HTU21D;51290;45.060;38.948;2022-12-13T09:11:18;11.56;77.32
64833;HTU21D;51290;45.060;38.948;2022-12-13T09:13:44;11.59;77.22
64833;HTU21D;51290;45.060;38.948;2022-12-13T09:16:13;11.60;77.16
64833;HTU21D;51290;45.060;38.948;2022-12-13T09:18:39;11.59;77.11
64833;HTU21D;51290;45.060;38.948;2022-12-13T09:21:07;11.57;77.12
64833;HTU21D;51290;45.060;38.948;2022-12-13T09:23:34;11.53;77.18
64833;HTU21D;51290;45.060;38.948;2022-12-13T09:26:00;11.47;77.18
64833;HTU21D;51290;45.060;38.948;2022-12-13T09:28:30;11.39;77.32
64833;HTU21D;51290;45.060;38.948;2022-12-13T09:30:56;11.30;77.52
64833;HTU21D;51290;45.060;38.948;2022-12-13T09:33:23;11.25;77.75
64833;HTU21D;51290;45.060;38.948;2022-12-13T09:35:51;11.20;77.95
64833;HTU21D;51290;45.060;38.948;2022-12-13T09:38:18;11.22;78.07
64833;HTU21D;51290;45.060;38.948;2022-12-13T09:40:46;11.24;78.11
64833;HTU21D;51290;45.060;38.948;2022-12-13T09:43:23;11.24;78.08
64833;HTU21D;51290;45.060;38.948;2022-12-13T09:45:50;11.26;78.19
64833;HTU21D;51290;45.060;38.948;2022-12-13T09:48:18;11.25;78.25
64833;HTU21D;51290;45.060;38.948;2022-12-13T09:50:46;11.26;78.40
64833;HTU21D;51290;45.060;38.948;2022-12-13T09:53:15;11.32;78.52
64833;HTU21D;51290;45.060;38.948;2022-12-13T09:55:45;11.39;78.53
64833;HTU21D;51290;45.060;38.948;2022-12-13T10:00:46;11.58;78.54
64833;HTU21D;51290;45.060;38.948;2022-12-13T10:03:14;11.67;78.57
64833;HTU21D;51290;45.060;38.948;2022-12-13T10:05:44;11.79;78.56
64833;HTU21D;51290;45.060;38.948;2022-12-13T10:08:20;11.89;78.48
64833;HTU21D;51290;45.060;38.948;2022-12-13T10:10:50;12.01;78.40
64833;HTU21D;51290;45.060;38.948;2022-12-13T10:13:38;12.12;78.34
64833;HTU21D;51290;45.060;38.948;2022-12-13T10:18:41;12.38;78.18
64833;HTU21D;51290;45.060;38.948;2022-12-13T10:21:27;12.55;77.98
64833;HTU21D;51290;45.060;38.948;2022-12-13T10:23:59;12.64;77.70
64833;HTU21D;51290;45.060;38.948;2022-12-13T10:26:35;12.74;77.58
64833;HTU21D;51290;45.060;38.948;2022-12-13T10:29:04;12.85;77.50
64833;HTU21D;51290;45.060;38.948;2022-12-13T10:31:38;12.93;77.18
64833;HTU21D;51290;45.060;38.948;2022-12-13T10:34:12;12.94;76.97
64833;HTU21D;51290;45.060;38.948;2022-12-13T10:36:40;12.92;76.87
64833;HTU21D;51290;45.060;38.948;2022-12-13T10:39:16;12.88;76.86
64833;HTU21D;51290;45.060;38.948;2022-12-13T10:41:43;12.86;76.95
64833;HTU21D;51290;45.060;38.948;2022-12-13T10:44:17;12.88;77.04
64833;HTU21D;51290;45.060;38.948;2022-12-13T10:46:49;12.88;76.97
64833;HTU21D;51290;45.060;38.948;2022-12-13T10:49:23;12.89;76.92
64833;HTU21D;51290;45.060;38.948;2022-12-13T10:51:51;12.88;76.89
64833;HTU21D;51290;45.060;38.948;2022-12-13T10:54:28;12.87;76.84
64833;HTU21D;51290;45.060;38.948;2022-12-13T10:56:54;12.88;76.89
64833;HTU21D;51290;45.060;38.948;2022-12-13T10:59:25;12.91;76.83
64833;HTU21D;51290;45.060;38.948;2022-12-13T11:01:53;12.91;76.83
64833;HTU21D;51290;45.060;38.948;2022-12-13T11:04:31;12.97;76.94
64833;HTU21D;51290;45.060;38.948;2022-12-13T11:07:00;13.08;76.97
64833;HTU21D;51290;45.060;38.948;2022-12-13T11:09:31;13.19;76.92
64833;HTU21D;51290;45.060;38.948;2022-12-13T11:12:02;13.33;76.79
64833;HTU21D;51290;45.060;38.948;2022-12-13T11:14:34;13.44;76.50
64833;HTU21D;51290;45.060;38.948;2022-12-13T11:17:12;13.49;76.24
64833;HTU21D;51290;45.060;38.948;2022-12-13T11:19:47;13.48;76.12
64833;HTU21D;51290;45.060;38.948;2022-12-13T11:22:26;13.49;76.18
64833;HTU21D;51290;45.060;38.948;2022-12-13T11:25:02;13.51;76.22
64833;HTU21D;51290;45.060;38.948;2022-12-13T11:38:10;13.75;75.71
64833;HTU21D;51290;45.060;38.948;2022-12-13T11:40:44;13.69;75.65
64833;HTU21D;51290;45.060;38.948;2022-12-13T11:49:16;13.59;75.64
64833;HTU21D;51290;45.060;38.948;2022-12-13T11:51:52;13.49;75.60
64833;HTU21D;51290;45.060;38.948;2022-12-13T11:57:11;13.23;75.56
64833;HTU21D;51290;45.060;38.948;2022-12-13T11:59:56;13.07;75.69
64833;HTU21D;51290;45.060;38.948;2022-12-13T12:04:55;12.84;76.08
64833;HTU21D;51290;45.060;38.948;2022-12-13T12:07:42;12.72;76.16
64833;HTU21D;51290;45.060;38.948;2022-12-13T12:12:41;12.58;76.49
64833;HTU21D;51290;45.060;38.948;2022-12-13T12:17:38;12.48;76.61
64833;HTU21D;51290;45.060;38.948;2022-12-13T12:20:05;12.43;76.67
64833;HTU21D;51290;45.060;38.948;2022-12-13T12:22:48;12.37;76.75
64833;HTU21D;51290;45.060;38.948;2022-12-13T12:36:22;12.25;77.17
64833;HTU21D;51290;45.060;38.948;2022-12-13T12:50:14;12.28;77.19
64833;HTU21D;51290;45.060;38.948;2022-12-13T12:58:24;12.29;77.27
64833;HTU21D;51290;45.060;38.948;2022-12-13T13:03:57;12.28;77.27
64833;HTU21D;51290;45.060;38.948;2022-12-13T13:06:33;12.27;77.31
64833;HTU21D;51290;45.060;38.948;2022-12-13T13:09:00;12.27;77.32
64833;HTU21D;51290;45.060;38.948;2022-12-13T13:11:29;12.26;77.36
64833;HTU21D;51290;45.060;38.948;2022-12-13T13:16:27;12.26;77.44
64833;HTU21D;51290;45.060;38.948;2022-12-13T13:18:55;12.25;77.47
64833;HTU21D;51290;45.060;38.948;2022-12-13T13:26:39;12.26;77.51
64833;HTU21D;51290;45.060;38.948;2022-12-13T13:32:01;12.26;77.62
64833;HTU21D;51290;45.060;38.948;2022-12-13T13:34:57;12.23;77.67
64833;HTU21D;51290;45.060;38.948;2022-12-13T13:37:46;12.23;77.68
64833;HTU21D;51290;45.060;38.948;2022-12-13T13:45:28;12.23;77.71
64833;HTU21D;51290;45.060;38.948;2022-12-13T13:48:23;12.25;77.74
64833;HTU21D;51290;45.060;38.948;2022-12-13T13:50:58;12.25;77.72
64833;HTU21D;51290;45.060;38.948;2022-12-13T13:53:33;12.22;77.64
64833;HTU21D;51290;45.060;38.948;2022-12-13T14:10:30;12.06;77.78
64833;HTU21D;51290;45.060;38.948;2022-12-13T14:16:06;12.00;77.83
64833;HTU21D;51290;45.060;38.948;2022-12-13T14:24:33;11.91;77.95
64833;HTU21D;51290;45.060;38.948;2022-12-13T14:29:58;11.86;77.99
64833;HTU21D;51290;45.060;38.948;2022-12-13T14:32:29;11.86;78.17
64833;HTU21D;51290;45.060;38.948;2022-12-13T14:34:58;11.88;78.18
64833;HTU21D;51290;45.060;38.948;2022-12-13T14:37:30;11.88;78.18
64833;HTU21D;51290;45.060;38.948;2022-12-13T14:39:58;11.88;78.22
64833;HTU21D;51290;45.060;38.948;2022-12-13T14:42:29;11.90;78.28
64833;HTU21D;51290;45.060;38.948;2022-12-13T14:45:20;11.92;78.30
64833;HTU21D;51290;45.060;38.948;2022-12-13T14:47:47;11.91;78.30
64833;HTU21D;51290;45.060;38.948;2022-12-13T14:50:16;11.92;78.32
64833;HTU21D;51290;45.060;38.948;2022-12-13T14:52:45;11.96;78.32
64833;HTU21D;51290;45.060;38.948;2022-12-13T14:55:40;11.96;78.31
64833;HTU21D;51290;45.060;38.948;2022-12-13T14:58:18;11.99;78.34
64833;HTU21D;51290;45.060;38.948;2022-12-13T15:00:45;12.00;78.34
64833;HTU21D;51290;45.060;38.948;2022-12-13T15:03:21;12.02;78.36
64833;HTU21D;51290;45.060;38.948;2022-12-13T15:05:52;12.02;78.40
64833;HTU21D;51290;45.060;38.948;2022-12-13T15:08:19;12.05;78.43
64833;HTU21D;51290;45.060;38.948;2022-12-13T15:10:54;12.06;78.43
64833;HTU21D;51290;45.060;38.948;2022-12-13T15:13:27;12.08;78.44
64833;HTU21D;51290;45.060;38.948;2022-12-13T15:16:05;12.10;78.45
64833;HTU21D;51290;45.060;38.948;2022-12-13T15:18:40;12.10;78.47
64833;HTU21D;51290;45.060;38.948;2022-12-13T15:26:09;12.17;78.69
64833;HTU21D;51290;45.060;38.948;2022-12-13T15:28:40;12.20;78.69
64833;HTU21D;51290;45.060;38.948;2022-12-13T15:31:07;12.25;78.66
64833;HTU21D;51290;45.060;38.948;2022-12-13T15:33:33;12.29;78.63
64833;HTU21D;51290;45.060;38.948;2022-12-13T15:36:03;12.30;78.58
64833;HTU21D;51290;45.060;38.948;2022-12-13T15:38:31;12.33;78.54
64833;HTU21D;51290;45.060;38.948;2022-12-13T15:40:57;12.34;78.52
64833;HTU21D;51290;45.060;38.948;2022-12-13T15:43:36;12.37;78.49
64833;HTU21D;51290;45.060;38.948;2022-12-13T15:46:06;12.38;78.46
64833;HTU21D;51290;45.060;38.948;2022-12-13T15:48:36;12.41;78.48
64833;HTU21D;51290;45.060;38.948;2022-12-13T15:51:11;12.45;78.58
64833;HTU21D;51290;45.060;38.948;2022-12-13T15:53:53;12.51;78.66
64833;HTU21D;51290;45.060;38.948;2022-12-13T15:56:38;12.61;78.64
64833;HTU21D;51290;45.060;38.948;2022-12-13T15:59:24;12.73;78.73
64833;HTU21D;51290;45.060;38.948;2022-12-13T16:01:51;12.86;78.71
64833;HTU21D;51290;45.060;38.948;2022-12-13T16:04:22;13.00;78.57
64833;HTU21D;51290;45.060;38.948;2022-12-13T16:06:50;13.08;78.40
64833;HTU21D;51290;45.060;38.948;2022-12-13T16:09:23;13.17;78.21
64833;HTU21D;51290;45.060;38.948;2022-12-13T16:12:02;13.27;78.07
64833;HTU21D;51290;45.060;38.948;2022-12-13T16:17:00;13.38;77.80
64833;HTU21D;51290;45.060;38.948;2022-12-13T16:19:27;13.43;77.69
64833;HTU21D;51290;45.060;38.948;2022-12-13T16:21:53;13.46;77.61
64833;HTU21D;51290;45.060;38.948;2022-12-13T16:24:19;13.50;77.51
64833;HTU21D;51290;45.060;38.948;2022-12-13T16:26:46;13.52;77.37
64833;HTU21D;51290;45.060;38.948;2022-12-13T16:29:16;13.52;77.21
64833;HTU21D;51290;45.060;38.948;2022-12-13T16:31:44;13.48;77.15
64833;HTU21D;51290;45.060;38.948;2022-12-13T16:34:11;13.47;77.23
64833;HTU21D;51290;45.060;38.948;2022-12-13T16:36:38;13.45;77.31
64833;HTU21D;51290;45.060;38.948;2022-12-13T16:39:05;13.45;77.38
64833;HTU21D;51290;45.060;38.948;2022-12-13T16:41:36;13.47;77.41
64833;HTU21D;51290;45.060;38.948;2022-12-13T16:44:05;13.49;77.42
64833;HTU21D;51290;45.060;38.948;2022-12-13T16:46:33;13.52;77.40
64833;HTU21D;51290;45.060;38.948;2022-12-13T16:49:10;13.54;77.35
64833;HTU21D;51290;45.060;38.948;2022-12-13T16:51:40;13.60;77.28
64833;HTU21D;51290;45.060;38.948;2022-12-13T16:54:06;13.64;77.23
64833;HTU21D;51290;45.060;38.948;2022-12-13T16:56:32;13.69;77.15
64833;HTU21D;51290;45.060;38.948;2022-12-13T16:58:58;13.73;77.04
64833;HTU21D;51290;45.060;38.948;2022-12-13T17:01:24;13.77;76.94
64833;HTU21D;51290;45.060;38.948;2022-12-13T17:03:53;13.80;76.87
64833;HTU21D;51290;45.060;38.948;2022-12-13T17:06:22;13.82;76.82
64833;HTU21D;51290;45.060;38.948;2022-12-13T17:08:49;13.84;76.72
64833;HTU21D;51290;45.060;38.948;2022-12-13T17:11:15;13.86;76.63
64833;HTU21D;51290;45.060;38.948;2022-12-13T17:13:41;13.85;76.54
64833;HTU21D;51290;45.060;38.948;2022-12-13T17:16:09;13.84;76.46
64833;HTU21D;51290;45.060;38.948;2022-12-13T17:18:35;13.79;76.42
64833;HTU21D;51290;45.060;38.948;2022-12-13T17:21:06;13.71;76.47
64833;HTU21D;51290;45.060;38.948;2022-12-13T17:23:32;13.63;76.56
64833;HTU21D;51290;45.060;38.948;2022-12-13T17:26:09;13.52;76.66
64833;HTU21D;51290;45.060;38.948;2022-12-13T17:28:36;13.41;76.83
64833;HTU21D;51290;45.060;38.948;2022-12-13T17:31:08;13.30;76.98
64833;HTU21D;51290;45.060;38.948;2022-12-13T17:33:34;13.20;77.21